sensor_id;sensor_type;location;lat;lon;timestamp;temperature;humidity
33149;DHT22;19506;51.040;3.856;2023-06-26T00:01:57;24.60;99.90
33149;DHT22;19506;51.040;3.856;2023-06-26T00:04:23;24.70;99.90
33149;DHT22;19506;51.040;3.856;2023-06-26T00:06:49;24.70;99.90
33149;DHT22;19506;51.040;3.856;2023-06-26T00:09:14;24.70;99.90
33149;DHT22;19506;51.040;3.856;2023-06-26T00:11:40;24.70;99.90
33149;DHT22;19506;51.040;3.856;2023-06-26T00:14:06;24.70;99.90
33149;DHT22;19506;51.040;3.856;2023-06-26T00:16:32;24.70;99.90
33149;DHT22;19506;51.040;3.856;2023-06-26T00:18:58;24.70;99.90
33149;DHT22;19506;51.040;3.856;2023-06-26T00:21:26;24.70;99.90
33149;DHT22;19506;51.040;3.856;2023-06-26T00:23:52;24.70;99.90
33149;DHT22;19506;51.040;3.856;2023-06-26T00:26:18;24.70;99.90
33149;DHT22;19506;51.040;3.856;2023-06-26T00:28:44;24.70;99.90
33149;DHT22;19506;51.040;3.856;2023-06-26T00:31:09;24.70;99.90
33149;DHT22;19506;51.040;3.856;2023-06-26T00:33:35;24.70;99.90
33149;DHT22;19506;51.040;3.856;2023-06-26T00:36:00;24.70;99.90
33149;DHT22;19506;51.040;3.856;2023-06-26T00:38:26;24.70;99.90
33149;DHT22;19506;51.040;3.856;2023-06-26T00:40:52;24.70;99.90
33149;DHT22;19506;51.040;3.856;2023-06-26T00:43:17;24.70;99.90
33149;DHT22;19506;51.040;3.856;2023-06-26T00:45:43;24.70;99.90
33149;DHT22;19506;51.040;3.856;2023-06-26T00:48:10;24.70;99.90
33149;DHT22;19506;51.040;3.856;2023-06-26T00:50:37;24.70;99.90
33149;DHT22;19506;51.040;3.856;2023-06-26T00:53:03;24.70;99.90
33149;DHT22;19506;51.040;3.856;2023-06-26T00:55:29;24.70;99.90
33149;DHT22;19506;51.040;3.856;2023-06-26T00:57:55;24.70;99.90
33149;DHT22;19506;51.040;3.856;2023-06-26T01:00:21;24.70;99.90
33149;DHT22;19506;51.040;3.856;2023-06-26T01:02:47;24.70;99.90
33149;DHT22;19506;51.040;3.856;2023-06-26T01:05:13;24.70;99.90
33149;DHT22;19506;51.040;3.856;2023-06-26T01:07:49;24.70;99.90
33149;DHT22;19506;51.040;3.856;2023-06-26T01:10:15;24.70;99.90
33149;DHT22;19506;51.040;3.856;2023-06-26T01:12:41;24.70;99.90
33149;DHT22;19506;51.040;3.856;2023-06-26T01:15:08;24.70;99.90
33149;DHT22;19506;51.040;3.856;2023-06-26T01:17:35;24.70;99.90
33149;DHT22;19506;51.040;3.856;2023-06-26T01:20:03;24.70;99.90
33149;DHT22;19506;51.040;3.856;2023-06-26T01:28:07;24.70;99.90
33149;DHT22;19506;51.040;3.856;2023-06-26T01:30:37;24.70;99.90
33149;DHT22;19506;51.040;3.856;2023-06-26T01:33:03;24.70;99.90
33149;DHT22;19506;51.040;3.856;2023-06-26T01:35:29;24.70;99.90
33149;DHT22;19506;51.040;3.856;2023-06-26T01:40:39;24.80;99.90
33149;DHT22;19506;51.040;3.856;2023-06-26T01:43:08;24.80;99.90
33149;DHT22;19506;51.040;3.856;2023-06-26T01:45:37;24.70;99.90
33149;DHT22;19506;51.040;3.856;2023-06-26T01:48:06;24.80;99.90
33149;DHT22;19506;51.040;3.856;2023-06-26T01:50:33;24.80;99.90
33149;DHT22;19506;51.040;3.856;2023-06-26T01:53:16;24.80;99.90
33149;DHT22;19506;51.040;3.856;2023-06-26T01:55:51;24.80;99.90
33149;DHT22;19506;51.040;3.856;2023-06-26T01:58:19;24.80;99.90
33149;DHT22;19506;51.040;3.856;2023-06-26T02:00:47;24.80;99.90
33149;DHT22;19506;51.040;3.856;2023-06-26T02:03:13;24.80;99.90
33149;DHT22;19506;51.040;3.856;2023-06-26T02:05:39;24.80;99.90
33149;DHT22;19506;51.040;3.856;2023-06-26T02:08:05;24.70;99.90
33149;DHT22;19506;51.040;3.856;2023-06-26T02:10:31;24.70;99.90
33149;DHT22;19506;51.040;3.856;2023-06-26T02:12:57;24.80;99.90
33149;DHT22;19506;51.040;3.856;2023-06-26T02:15:22;24.90;99.90
33149;DHT22;19506;51.040;3.856;2023-06-26T02:17:48;24.90;99.90
33149;DHT22;19506;51.040;3.856;2023-06-26T02:20:14;24.90;99.90
33149;DHT22;19506;51.040;3.856;2023-06-26T02:22:41;25.00;99.90
33149;DHT22;19506;51.040;3.856;2023-06-26T02:25:06;25.00;99.90
33149;DHT22;19506;51.040;3.856;2023-06-26T02:27:32;25.00;99.90
33149;DHT22;19506;51.040;3.856;2023-06-26T02:29:58;25.00;99.90
33149;DHT22;19506;51.040;3.856;2023-06-26T02:32:23;25.00;99.90
33149;DHT22;19506;51.040;3.856;2023-06-26T02:34:49;25.10;99.90
33149;DHT22;19506;51.040;3.856;2023-06-26T02:37:17;25.10;99.90
33149;DHT22;19506;51.040;3.856;2023-06-26T02:39:43;25.10;99.90
33149;DHT22;19506;51.040;3.856;2023-06-26T02:42:09;25.10;99.90
33149;DHT22;19506;51.040;3.856;2023-06-26T02:44:34;25.10;99.90
33149;DHT22;19506;51.040;3.856;2023-06-26T02:47:00;25.10;99.90
33149;DHT22;19506;51.040;3.856;2023-06-26T02:49:25;25.10;99.90
33149;DHT22;19506;51.040;3.856;2023-06-26T02:51:51;25.10;99.90
33149;DHT22;19506;51.040;3.856;2023-06-26T02:54:17;25.10;99.90
33149;DHT22;19506;51.040;3.856;2023-06-26T02:56:42;25.10;99.90
33149;DHT22;19506;51.040;3.856;2023-06-26T02:59:08;25.10;99.90
33149;DHT22;19506;51.040;3.856;2023-06-26T03:01:34;25.10;99.90
33149;DHT22;19506;51.040;3.856;2023-06-26T03:03:59;25.10;99.90
33149;DHT22;19506;51.040;3.856;2023-06-26T03:06:26;25.10;99.90
33149;DHT22;19506;51.040;3.856;2023-06-26T03:08:53;25.10;99.90
33149;DHT22;19506;51.040;3.856;2023-06-26T03:11:19;25.10;99.90
33149;DHT22;19506;51.040;3.856;2023-06-26T03:13:45;25.10;99.90
33149;DHT22;19506;51.040;3.856;2023-06-26T03:16:10;25.10;99.90
33149;DHT22;19506;51.040;3.856;2023-06-26T03:18:36;25.10;99.90
33149;DHT22;19506;51.040;3.856;2023-06-26T03:21:02;25.10;99.90
33149;DHT22;19506;51.040;3.856;2023-06-26T03:23:28;25.10;99.90
33149;DHT22;19506;51.040;3.856;2023-06-26T03:25:53;25.10;99.90
33149;DHT22;19506;51.040;3.856;2023-06-26T03:28:19;25.10;99.90
33149;DHT22;19506;51.040;3.856;2023-06-26T03:30:45;25.10;99.90
33149;DHT22;19506;51.040;3.856;2023-06-26T03:33:11;25.10;99.90
33149;DHT22;19506;51.040;3.856;2023-06-26T03:35:37;25.10;99.90
33149;DHT22;19506;51.040;3.856;2023-06-26T03:38:04;25.10;99.90
33149;DHT22;19506;51.040;3.856;2023-06-26T03:40:29;25.10;99.90
33149;DHT22;19506;51.040;3.856;2023-06-26T03:42:55;25.00;99.90
33149;DHT22;19506;51.040;3.856;2023-06-26T03:45:21;25.10;99.90
33149;DHT22;19506;51.040;3.856;2023-06-26T03:47:46;25.10;99.90
33149;DHT22;19506;51.040;3.856;2023-06-26T03:50:18;25.10;99.90
33149;DHT22;19506;51.040;3.856;2023-06-26T03:52:44;25.00;99.90
33149;DHT22;19506;51.040;3.856;2023-06-26T03:55:09;25.10;99.90
33149;DHT22;19506;51.040;3.856;2023-06-26T03:57:35;25.10;99.90
33149;DHT22;19506;51.040;3.856;2023-06-26T04:00:01;25.00;99.90
33149;DHT22;19506;51.040;3.856;2023-06-26T04:02:31;25.00;99.90
33149;DHT22;19506;51.040;3.856;2023-06-26T04:04:56;25.10;99.90
33149;DHT22;19506;51.040;3.856;2023-06-26T04:07:22;25.00;99.90
33149;DHT22;19506;51.040;3.856;2023-06-26T04:09:48;25.00;99.90
33149;DHT22;19506;51.040;3.856;2023-06-26T04:12:13;25.00;99.90
33149;DHT22;19506;51.040;3.856;2023-06-26T04:14:39;25.00;99.90
33149;DHT22;19506;51.040;3.856;2023-06-26T04:17:05;25.00;99.90
33149;DHT22;19506;51.040;3.856;2023-06-26T04:19:30;25.00;99.90
33149;DHT22;19506;51.040;3.856;2023-06-26T04:21:56;25.00;99.90
33149;DHT22;19506;51.040;3.856;2023-06-26T04:24:22;25.10;99.90
33149;DHT22;19506;51.040;3.856;2023-06-26T04:26:48;25.00;99.90
33149;DHT22;19506;51.040;3.856;2023-06-26T04:29:14;25.00;99.90
33149;DHT22;19506;51.040;3.856;2023-06-26T04:31:39;25.00;99.90
33149;DHT22;19506;51.040;3.856;2023-06-26T04:34:05;25.00;99.90
33149;DHT22;19506;51.040;3.856;2023-06-26T04:36:31;25.00;99.90
33149;DHT22;19506;51.040;3.856;2023-06-26T04:38:59;25.00;99.90
33149;DHT22;19506;51.040;3.856;2023-06-26T04:41:25;24.90;99.90
33149;DHT22;19506;51.040;3.856;2023-06-26T04:43:50;24.90;99.90
33149;DHT22;19506;51.040;3.856;2023-06-26T04:46:16;24.70;99.90
33149;DHT22;19506;51.040;3.856;2023-06-26T04:48:42;24.70;99.90
33149;DHT22;19506;51.040;3.856;2023-06-26T04:51:10;24.60;99.90
33149;DHT22;19506;51.040;3.856;2023-06-26T04:53:36;24.60;99.90
33149;DHT22;19506;51.040;3.856;2023-06-26T04:56:01;24.60;99.90
33149;DHT22;19506;51.040;3.856;2023-06-26T04:58:27;24.50;99.90
33149;DHT22;19506;51.040;3.856;2023-06-26T05:00:53;24.40;99.90
33149;DHT22;19506;51.040;3.856;2023-06-26T05:03:19;24.40;99.90
33149;DHT22;19506;51.040;3.856;2023-06-26T05:05:46;24.40;99.90
33149;DHT22;19506;51.040;3.856;2023-06-26T05:08:21;24.40;99.90
33149;DHT22;19506;51.040;3.856;2023-06-26T05:10:46;24.50;99.90
33149;DHT22;19506;51.040;3.856;2023-06-26T05:13:12;24.50;99.90
33149;DHT22;19506;51.040;3.856;2023-06-26T05:15:41;24.50;99.90
33149;DHT22;19506;51.040;3.856;2023-06-26T05:18:07;24.50;99.90
33149;DHT22;19506;51.040;3.856;2023-06-26T05:20:34;24.40;99.90
33149;DHT22;19506;51.040;3.856;2023-06-26T05:23:02;24.40;99.90
33149;DHT22;19506;51.040;3.856;2023-06-26T05:25:29;24.40;99.90
33149;DHT22;19506;51.040;3.856;2023-06-26T05:27:58;24.40;99.90
33149;DHT22;19506;51.040;3.856;2023-06-26T05:30:25;24.40;99.90
33149;DHT22;19506;51.040;3.856;2023-06-26T05:32:52;24.40;99.90
33149;DHT22;19506;51.040;3.856;2023-06-26T05:35:19;24.30;99.90
33149;DHT22;19506;51.040;3.856;2023-06-26T05:37:48;24.30;99.90
33149;DHT22;19506;51.040;3.856;2023-06-26T05:40:14;24.30;99.90
33149;DHT22;19506;51.040;3.856;2023-06-26T05:42:40;24.30;99.90
33149;DHT22;19506;51.040;3.856;2023-06-26T05:45:06;24.30;99.90
33149;DHT22;19506;51.040;3.856;2023-06-26T05:47:32;24.30;99.90
33149;DHT22;19506;51.040;3.856;2023-06-26T05:49:58;24.30;99.90
33149;DHT22;19506;51.040;3.856;2023-06-26T05:52:24;24.20;99.90
33149;DHT22;19506;51.040;3.856;2023-06-26T05:54:50;24.30;99.90
33149;DHT22;19506;51.040;3.856;2023-06-26T05:57:16;24.30;99.90
33149;DHT22;19506;51.040;3.856;2023-06-26T05:59:43;24.30;99.90
33149;DHT22;19506;51.040;3.856;2023-06-26T06:02:09;24.20;99.90
33149;DHT22;19506;51.040;3.856;2023-06-26T06:04:36;24.20;99.90
33149;DHT22;19506;51.040;3.856;2023-06-26T06:07:03;24.20;99.90
33149;DHT22;19506;51.040;3.856;2023-06-26T06:09:28;24.20;99.90
33149;DHT22;19506;51.040;3.856;2023-06-26T06:11:54;24.20;99.90
33149;DHT22;19506;51.040;3.856;2023-06-26T06:14:20;24.10;99.90
33149;DHT22;19506;51.040;3.856;2023-06-26T06:16:46;24.20;99.90
33149;DHT22;19506;51.040;3.856;2023-06-26T06:19:11;24.20;99.90
33149;DHT22;19506;51.040;3.856;2023-06-26T06:21:39;24.10;99.90
33149;DHT22;19506;51.040;3.856;2023-06-26T06:24:05;24.10;99.90
33149;DHT22;19506;51.040;3.856;2023-06-26T06:26:32;24.10;99.90
33149;DHT22;19506;51.040;3.856;2023-06-26T06:28:58;24.10;99.90
33149;DHT22;19506;51.040;3.856;2023-06-26T06:31:23;24.10;99.90
33149;DHT22;19506;51.040;3.856;2023-06-26T06:33:49;24.10;99.90
33149;DHT22;19506;51.040;3.856;2023-06-26T06:36:15;24.10;99.90
33149;DHT22;19506;51.040;3.856;2023-06-26T06:38:43;24.10;99.90
33149;DHT22;19506;51.040;3.856;2023-06-26T06:41:09;24.10;99.90
33149;DHT22;19506;51.040;3.856;2023-06-26T06:43:35;24.10;99.90
33149;DHT22;19506;51.040;3.856;2023-06-26T06:46:01;24.10;99.90
33149;DHT22;19506;51.040;3.856;2023-06-26T06:48:27;24.10;99.90
33149;DHT22;19506;51.040;3.856;2023-06-26T06:50:53;24.20;99.90
33149;DHT22;19506;51.040;3.856;2023-06-26T06:53:19;24.10;99.90
33149;DHT22;19506;51.040;3.856;2023-06-26T06:55:46;24.10;99.90
33149;DHT22;19506;51.040;3.856;2023-06-26T06:58:12;24.20;99.90
33149;DHT22;19506;51.040;3.856;2023-06-26T07:00:37;24.10;99.90
33149;DHT22;19506;51.040;3.856;2023-06-26T07:03:03;24.10;99.90
33149;DHT22;19506;51.040;3.856;2023-06-26T07:05:29;24.10;99.90
33149;DHT22;19506;51.040;3.856;2023-06-26T07:07:55;24.10;99.90
33149;DHT22;19506;51.040;3.856;2023-06-26T07:10:21;24.10;99.90
33149;DHT22;19506;51.040;3.856;2023-06-26T07:12:46;24.20;99.90
33149;DHT22;19506;51.040;3.856;2023-06-26T07:15:12;24.20;99.90
33149;DHT22;19506;51.040;3.856;2023-06-26T07:17:38;24.10;99.90
33149;DHT22;19506;51.040;3.856;2023-06-26T07:20:05;24.10;99.90
33149;DHT22;19506;51.040;3.856;2023-06-26T07:22:36;24.10;99.90
33149;DHT22;19506;51.040;3.856;2023-06-26T07:25:02;24.20;99.90
33149;DHT22;19506;51.040;3.856;2023-06-26T07:27:29;24.20;99.90
33149;DHT22;19506;51.040;3.856;2023-06-26T07:29:55;24.30;99.90
33149;DHT22;19506;51.040;3.856;2023-06-26T07:32:20;24.30;99.90
33149;DHT22;19506;51.040;3.856;2023-06-26T07:34:46;24.40;99.90
33149;DHT22;19506;51.040;3.856;2023-06-26T07:37:12;24.40;99.90
33149;DHT22;19506;51.040;3.856;2023-06-26T07:39:37;24.30;99.90
33149;DHT22;19506;51.040;3.856;2023-06-26T07:42:03;24.20;99.90
33149;DHT22;19506;51.040;3.856;2023-06-26T07:44:29;24.20;99.90
33149;DHT22;19506;51.040;3.856;2023-06-26T07:46:54;24.30;99.90
33149;DHT22;19506;51.040;3.856;2023-06-26T07:49:20;24.20;99.90
33149;DHT22;19506;51.040;3.856;2023-06-26T07:51:46;24.30;99.90
33149;DHT22;19506;51.040;3.856;2023-06-26T07:54:11;24.30;99.90
33149;DHT22;19506;51.040;3.856;2023-06-26T07:56:57;24.40;99.90
33149;DHT22;19506;51.040;3.856;2023-06-26T07:59:24;24.40;99.90
33149;DHT22;19506;51.040;3.856;2023-06-26T08:01:51;24.40;99.90
33149;DHT22;19506;51.040;3.856;2023-06-26T08:04:22;24.40;99.90
33149;DHT22;19506;51.040;3.856;2023-06-26T08:06:49;24.40;99.90
33149;DHT22;19506;51.040;3.856;2023-06-26T08:09:16;24.40;99.90
33149;DHT22;19506;51.040;3.856;2023-06-26T08:11:42;24.40;99.90
33149;DHT22;19506;51.040;3.856;2023-06-26T08:14:08;24.50;99.90
33149;DHT22;19506;51.040;3.856;2023-06-26T08:16:33;24.40;99.90
33149;DHT22;19506;51.040;3.856;2023-06-26T08:18:59;24.50;99.90
33149;DHT22;19506;51.040;3.856;2023-06-26T08:21:25;24.50;99.90
33149;DHT22;19506;51.040;3.856;2023-06-26T08:23:51;24.40;99.90
33149;DHT22;19506;51.040;3.856;2023-06-26T08:26:16;24.40;99.90
33149;DHT22;19506;51.040;3.856;2023-06-26T08:28:42;24.30;99.90
33149;DHT22;19506;51.040;3.856;2023-06-26T08:31:08;24.30;99.90
33149;DHT22;19506;51.040;3.856;2023-06-26T08:33:34;24.30;99.90
33149;DHT22;19506;51.040;3.856;2023-06-26T08:35:59;24.30;99.90
33149;DHT22;19506;51.040;3.856;2023-06-26T08:38:25;24.30;99.90
33149;DHT22;19506;51.040;3.856;2023-06-26T08:40:51;24.40;99.90
33149;DHT22;19506;51.040;3.856;2023-06-26T08:43:16;24.40;99.90
33149;DHT22;19506;51.040;3.856;2023-06-26T08:45:42;24.40;99.90
33149;DHT22;19506;51.040;3.856;2023-06-26T08:48:08;24.40;99.90
33149;DHT22;19506;51.040;3.856;2023-06-26T08:50:36;24.40;99.90
33149;DHT22;19506;51.040;3.856;2023-06-26T08:53:14;24.40;99.90
33149;DHT22;19506;51.040;3.856;2023-06-26T08:55:43;24.40;99.90
33149;DHT22;19506;51.040;3.856;2023-06-26T08:58:10;24.40;99.90
33149;DHT22;19506;51.040;3.856;2023-06-26T09:00:38;24.40;99.90
33149;DHT22;19506;51.040;3.856;2023-06-26T09:03:04;24.40;99.90
33149;DHT22;19506;51.040;3.856;2023-06-26T09:05:30;24.40;99.90
33149;DHT22;19506;51.040;3.856;2023-06-26T09:07:57;24.40;99.90
33149;DHT22;19506;51.040;3.856;2023-06-26T09:10:24;24.40;99.90
33149;DHT22;19506;51.040;3.856;2023-06-26T09:12:50;24.40;99.90
33149;DHT22;19506;51.040;3.856;2023-06-26T09:15:19;24.40;99.90
33149;DHT22;19506;51.040;3.856;2023-06-26T09:17:45;24.40;99.90
33149;DHT22;19506;51.040;3.856;2023-06-26T09:20:12;24.40;99.90
33149;DHT22;19506;51.040;3.856;2023-06-26T09:22:41;24.40;99.90
33149;DHT22;19506;51.040;3.856;2023-06-26T09:25:08;24.30;99.90
33149;DHT22;19506;51.040;3.856;2023-06-26T09:27:35;24.30;99.90
33149;DHT22;19506;51.040;3.856;2023-06-26T09:30:02;24.30;99.90
33149;DHT22;19506;51.040;3.856;2023-06-26T09:32:29;24.20;99.90
33149;DHT22;19506;51.040;3.856;2023-06-26T09:34:55;24.10;99.90
33149;DHT22;19506;51.040;3.856;2023-06-26T09:37:21;24.10;99.90
33149;DHT22;19506;51.040;3.856;2023-06-26T09:39:48;24.00;99.90
33149;DHT22;19506;51.040;3.856;2023-06-26T09:42:14;24.10;99.90
33149;DHT22;19506;51.040;3.856;2023-06-26T09:44:47;24.10;99.90
33149;DHT22;19506;51.040;3.856;2023-06-26T09:47:20;24.10;99.90
33149;DHT22;19506;51.040;3.856;2023-06-26T09:49:46;24.10;99.90
33149;DHT22;19506;51.040;3.856;2023-06-26T09:52:16;24.10;99.90
33149;DHT22;19506;51.040;3.856;2023-06-26T09:54:46;24.20;99.90
33149;DHT22;19506;51.040;3.856;2023-06-26T09:57:13;24.10;99.90
33149;DHT22;19506;51.040;3.856;2023-06-26T09:59:41;24.20;99.90
33149;DHT22;19506;51.040;3.856;2023-06-26T10:02:07;24.10;99.90
33149;DHT22;19506;51.040;3.856;2023-06-26T10:04:34;24.00;99.90
33149;DHT22;19506;51.040;3.856;2023-06-26T10:07:10;24.00;99.90
33149;DHT22;19506;51.040;3.856;2023-06-26T10:09:41;24.00;99.90
33149;DHT22;19506;51.040;3.856;2023-06-26T10:12:25;24.10;99.90
33149;DHT22;19506;51.040;3.856;2023-06-26T10:14:53;24.20;99.90
33149;DHT22;19506;51.040;3.856;2023-06-26T10:17:19;24.40;99.90
33149;DHT22;19506;51.040;3.856;2023-06-26T10:19:49;24.20;99.90
33149;DHT22;19506;51.040;3.856;2023-06-26T10:22:18;24.20;99.90
33149;DHT22;19506;51.040;3.856;2023-06-26T10:24:46;24.20;99.90
33149;DHT22;19506;51.040;3.856;2023-06-26T10:27:20;24.20;99.90
33149;DHT22;19506;51.040;3.856;2023-06-26T10:29:55;24.10;99.90
33149;DHT22;19506;51.040;3.856;2023-06-26T10:32:25;24.10;99.90
33149;DHT22;19506;51.040;3.856;2023-06-26T10:34:52;24.00;99.90
33149;DHT22;19506;51.040;3.856;2023-06-26T10:37:18;24.00;99.90
33149;DHT22;19506;51.040;3.856;2023-06-26T10:39:47;24.00;99.90
33149;DHT22;19506;51.040;3.856;2023-06-26T10:42:17;24.00;99.90
33149;DHT22;19506;51.040;3.856;2023-06-26T10:44:46;23.90;99.90
33149;DHT22;19506;51.040;3.856;2023-06-26T10:47:29;23.90;99.90
33149;DHT22;19506;51.040;3.856;2023-06-26T10:49:56;23.90;99.90
33149;DHT22;19506;51.040;3.856;2023-06-26T10:52:22;23.90;99.90
33149;DHT22;19506;51.040;3.856;2023-06-26T10:54:47;23.90;99.90
33149;DHT22;19506;51.040;3.856;2023-06-26T10:57:23;23.90;99.90
33149;DHT22;19506;51.040;3.856;2023-06-26T10:59:49;23.90;99.90
33149;DHT22;19506;51.040;3.856;2023-06-26T11:02:48;23.90;99.90
33149;DHT22;19506;51.040;3.856;2023-06-26T11:05:24;23.80;99.90
33149;DHT22;19506;51.040;3.856;2023-06-26T11:08:07;23.80;99.90
33149;DHT22;19506;51.040;3.856;2023-06-26T11:10:53;23.80;99.90
33149;DHT22;19506;51.040;3.856;2023-06-26T11:13:20;23.80;99.90
33149;DHT22;19506;51.040;3.856;2023-06-26T11:15:50;23.80;99.90
33149;DHT22;19506;51.040;3.856;2023-06-26T11:18:16;23.80;99.90
33149;DHT22;19506;51.040;3.856;2023-06-26T11:20:42;23.80;99.90
33149;DHT22;19506;51.040;3.856;2023-06-26T11:23:08;23.80;99.90
33149;DHT22;19506;51.040;3.856;2023-06-26T11:25:38;23.80;99.90
33149;DHT22;19506;51.040;3.856;2023-06-26T11:28:04;23.80;99.90
33149;DHT22;19506;51.040;3.856;2023-06-26T11:30:31;23.90;99.90
33149;DHT22;19506;51.040;3.856;2023-06-26T11:33:07;23.80;99.90
33149;DHT22;19506;51.040;3.856;2023-06-26T11:35:33;23.80;99.90
33149;DHT22;19506;51.040;3.856;2023-06-26T11:38:01;23.80;99.90
33149;DHT22;19506;51.040;3.856;2023-06-26T11:40:31;23.80;99.90
33149;DHT22;19506;51.040;3.856;2023-06-26T11:43:03;23.80;99.90
33149;DHT22;19506;51.040;3.856;2023-06-26T11:45:30;23.80;99.90
33149;DHT22;19506;51.040;3.856;2023-06-26T11:47:56;23.80;99.90
33149;DHT22;19506;51.040;3.856;2023-06-26T11:50:23;23.70;99.90
33149;DHT22;19506;51.040;3.856;2023-06-26T11:52:59;23.80;99.90
33149;DHT22;19506;51.040;3.856;2023-06-26T11:55:25;23.70;99.90
33149;DHT22;19506;51.040;3.856;2023-06-26T11:57:56;23.80;99.90
33149;DHT22;19506;51.040;3.856;2023-06-26T12:00:23;23.80;99.90
33149;DHT22;19506;51.040;3.856;2023-06-26T12:02:49;23.80;99.90
33149;DHT22;19506;51.040;3.856;2023-06-26T12:05:18;23.80;99.90
33149;DHT22;19506;51.040;3.856;2023-06-26T12:07:46;23.80;99.90
33149;DHT22;19506;51.040;3.856;2023-06-26T12:10:13;23.80;99.90
33149;DHT22;19506;51.040;3.856;2023-06-26T12:12:40;23.80;99.90
33149;DHT22;19506;51.040;3.856;2023-06-26T12:15:07;23.70;99.90
33149;DHT22;19506;51.040;3.856;2023-06-26T12:17:33;23.80;99.90
33149;DHT22;19506;51.040;3.856;2023-06-26T12:20:02;23.80;99.90
33149;DHT22;19506;51.040;3.856;2023-06-26T12:22:34;23.80;99.90
33149;DHT22;19506;51.040;3.856;2023-06-26T12:25:01;23.80;99.90
33149;DHT22;19506;51.040;3.856;2023-06-26T12:27:27;23.70;99.90
33149;DHT22;19506;51.040;3.856;2023-06-26T12:29:54;23.70;99.90
33149;DHT22;19506;51.040;3.856;2023-06-26T12:32:24;23.70;99.90
33149;DHT22;19506;51.040;3.856;2023-06-26T12:34:51;23.80;99.90
33149;DHT22;19506;51.040;3.856;2023-06-26T12:37:17;23.80;99.90
33149;DHT22;19506;51.040;3.856;2023-06-26T12:39:46;23.80;99.90
33149;DHT22;19506;51.040;3.856;2023-06-26T12:42:15;23.80;99.90
33149;DHT22;19506;51.040;3.856;2023-06-26T12:44:41;23.80;99.90
33149;DHT22;19506;51.040;3.856;2023-06-26T12:47:06;23.70;99.90
33149;DHT22;19506;51.040;3.856;2023-06-26T12:49:33;23.80;99.90
33149;DHT22;19506;51.040;3.856;2023-06-26T12:52:00;23.80;99.90
33149;DHT22;19506;51.040;3.856;2023-06-26T12:54:27;23.80;99.90
33149;DHT22;19506;51.040;3.856;2023-06-26T12:56:53;23.80;99.90
33149;DHT22;19506;51.040;3.856;2023-06-26T12:59:18;23.80;99.90
33149;DHT22;19506;51.040;3.856;2023-06-26T13:01:44;23.80;99.90
33149;DHT22;19506;51.040;3.856;2023-06-26T13:04:10;23.70;99.90
33149;DHT22;19506;51.040;3.856;2023-06-26T13:06:36;23.70;99.80
33149;DHT22;19506;51.040;3.856;2023-06-26T13:09:02;23.70;99.90
33149;DHT22;19506;51.040;3.856;2023-06-26T13:11:31;23.70;99.90
33149;DHT22;19506;51.040;3.856;2023-06-26T13:13:58;23.70;99.90
33149;DHT22;19506;51.040;3.856;2023-06-26T13:16:23;23.70;99.90
33149;DHT22;19506;51.040;3.856;2023-06-26T13:18:49;23.70;99.90
33149;DHT22;19506;51.040;3.856;2023-06-26T13:21:15;23.70;99.90
33149;DHT22;19506;51.040;3.856;2023-06-26T13:23:42;23.70;99.90
33149;DHT22;19506;51.040;3.856;2023-06-26T13:26:08;23.80;99.90
33149;DHT22;19506;51.040;3.856;2023-06-26T13:28:33;23.80;99.90
33149;DHT22;19506;51.040;3.856;2023-06-26T13:30:59;23.70;99.90
33149;DHT22;19506;51.040;3.856;2023-06-26T13:33:25;23.70;99.90
33149;DHT22;19506;51.040;3.856;2023-06-26T13:35:52;23.80;99.90
33149;DHT22;19506;51.040;3.856;2023-06-26T13:38:22;23.70;99.90
33149;DHT22;19506;51.040;3.856;2023-06-26T13:40:54;23.70;99.90
33149;DHT22;19506;51.040;3.856;2023-06-26T13:43:24;23.70;99.90
33149;DHT22;19506;51.040;3.856;2023-06-26T13:45:50;23.70;99.90
33149;DHT22;19506;51.040;3.856;2023-06-26T13:48:16;23.70;99.90
33149;DHT22;19506;51.040;3.856;2023-06-26T13:50:41;23.70;99.90
33149;DHT22;19506;51.040;3.856;2023-06-26T13:53:07;23.70;99.90
33149;DHT22;19506;51.040;3.856;2023-06-26T13:55:34;23.70;99.90
33149;DHT22;19506;51.040;3.856;2023-06-26T13:58:01;23.70;99.90
33149;DHT22;19506;51.040;3.856;2023-06-26T14:00:31;23.80;99.90
33149;DHT22;19506;51.040;3.856;2023-06-26T14:03:04;23.80;99.90
33149;DHT22;19506;51.040;3.856;2023-06-26T14:05:35;23.70;99.90
33149;DHT22;19506;51.040;3.856;2023-06-26T14:08:05;23.70;99.50
33149;DHT22;19506;51.040;3.856;2023-06-26T14:10:31;23.70;99.30
33149;DHT22;19506;51.040;3.856;2023-06-26T14:12:58;23.70;99.30
33149;DHT22;19506;51.040;3.856;2023-06-26T14:15:24;23.70;99.20
33149;DHT22;19506;51.040;3.856;2023-06-26T14:17:50;23.70;99.30
33149;DHT22;19506;51.040;3.856;2023-06-26T14:20:16;23.70;99.80
33149;DHT22;19506;51.040;3.856;2023-06-26T14:22:43;23.80;99.90
33149;DHT22;19506;51.040;3.856;2023-06-26T14:25:13;23.90;99.90
33149;DHT22;19506;51.040;3.856;2023-06-26T14:27:39;24.40;99.90
33149;DHT22;19506;51.040;3.856;2023-06-26T14:30:05;24.00;99.90
33149;DHT22;19506;51.040;3.856;2023-06-26T14:32:33;24.00;99.90
33149;DHT22;19506;51.040;3.856;2023-06-26T14:34:58;24.00;99.90
33149;DHT22;19506;51.040;3.856;2023-06-26T14:37:25;24.00;99.90
33149;DHT22;19506;51.040;3.856;2023-06-26T14:39:51;24.00;99.90
33149;DHT22;19506;51.040;3.856;2023-06-26T14:42:17;24.00;99.90
33149;DHT22;19506;51.040;3.856;2023-06-26T14:44:43;24.00;99.90
33149;DHT22;19506;51.040;3.856;2023-06-26T14:47:08;24.00;99.90
33149;DHT22;19506;51.040;3.856;2023-06-26T14:49:34;24.10;99.90
33149;DHT22;19506;51.040;3.856;2023-06-26T14:52:00;24.10;99.90
33149;DHT22;19506;51.040;3.856;2023-06-26T14:54:25;24.20;99.90
33149;DHT22;19506;51.040;3.856;2023-06-26T14:56:51;24.40;99.90
33149;DHT22;19506;51.040;3.856;2023-06-26T14:59:17;24.30;99.50
33149;DHT22;19506;51.040;3.856;2023-06-26T15:01:42;24.60;99.30
33149;DHT22;19506;51.040;3.856;2023-06-26T15:04:08;24.60;99.50
33149;DHT22;19506;51.040;3.856;2023-06-26T15:06:35;24.70;99.30
33149;DHT22;19506;51.040;3.856;2023-06-26T15:09:01;25.00;98.20
33149;DHT22;19506;51.040;3.856;2023-06-26T15:11:28;25.00;98.40
33149;DHT22;19506;51.040;3.856;2023-06-26T15:13:55;24.90;99.90
33149;DHT22;19506;51.040;3.856;2023-06-26T15:16:21;24.90;99.90
33149;DHT22;19506;51.040;3.856;2023-06-26T15:18:50;24.70;98.80
33149;DHT22;19506;51.040;3.856;2023-06-26T15:21:16;24.70;99.10
33149;DHT22;19506;51.040;3.856;2023-06-26T15:23:41;24.90;98.60
33149;DHT22;19506;51.040;3.856;2023-06-26T15:26:07;25.00;98.20
33149;DHT22;19506;51.040;3.856;2023-06-26T15:28:32;24.90;98.10
33149;DHT22;19506;51.040;3.856;2023-06-26T15:30:59;24.90;99.90
33149;DHT22;19506;51.040;3.856;2023-06-26T15:33:24;24.80;98.80
33149;DHT22;19506;51.040;3.856;2023-06-26T15:35:50;24.80;98.20
33149;DHT22;19506;51.040;3.856;2023-06-26T15:38:16;24.80;98.40